sensor_id;sensor_type;location;lat;lon;timestamp;P1;durP1;ratioP1;P2;durP2;ratioP2
53044;SDS011;38930;52.766;6.884;2022-09-25T00:00:52;8.10;;;2.08;;
53044;SDS011;38930;52.766;6.884;2022-09-25T00:03:19;4.53;;;1.27;;
53044;SDS011;38930;52.766;6.884;2022-09-25T00:05:46;4.40;;;1.60;;
53044;SDS011;38930;52.766;6.884;2022-09-25T00:08:12;7.32;;;1.45;;
53044;SDS011;38930;52.766;6.884;2022-09-25T00:10:43;3.60;;;1.65;;
53044;SDS011;38930;52.766;6.884;2022-09-25T00:13:11;4.90;;;1.50;;
53044;SDS011;38930;52.766;6.884;2022-09-25T00:15:37;5.13;;;1.70;;
53044;SDS011;38930;52.766;6.884;2022-09-25T00:18:09;5.13;;;1.70;;
53044;SDS011;38930;52.766;6.884;2022-09-25T00:20:34;4.57;;;1.40;;
53044;SDS011;38930;52.766;6.884;2022-09-25T00:25:27;4.07;;;1.67;;
53044;SDS011;38930;52.766;6.884;2022-09-25T00:27:53;5.63;;;1.70;;
53044;SDS011;38930;52.766;6.884;2022-09-25T00:30:19;3.35;;;1.30;;
53044;SDS011;38930;52.766;6.884;2022-09-25T00:32:45;6.97;;;1.80;;
53044;SDS011;38930;52.766;6.884;2022-09-25T00:35:11;8.73;;;1.58;;
53044;SDS011;38930;52.766;6.884;2022-09-25T00:37:36;5.13;;;1.70;;
53044;SDS011;38930;52.766;6.884;2022-09-25T00:40:03;12.32;;;2.88;;
53044;SDS011;38930;52.766;6.884;2022-09-25T00:42:29;2.95;;;1.33;;
53044;SDS011;38930;52.766;6.884;2022-09-25T00:47:26;7.75;;;1.67;;
53044;SDS011;38930;52.766;6.884;2022-09-25T00:49:53;5.68;;;1.80;;
53044;SDS011;38930;52.766;6.884;2022-09-25T00:52:20;3.63;;;1.50;;
53044;SDS011;38930;52.766;6.884;2022-09-25T00:54:57;6.22;;;1.52;;
53044;SDS011;38930;52.766;6.884;2022-09-25T00:57:28;6.35;;;1.90;;
53044;SDS011;38930;52.766;6.884;2022-09-25T00:59:57;4.80;;;1.67;;
53044;SDS011;38930;52.766;6.884;2022-09-25T01:02:28;5.80;;;1.85;;
53044;SDS011;38930;52.766;6.884;2022-09-25T01:04:59;5.15;;;1.60;;
53044;SDS011;38930;52.766;6.884;2022-09-25T01:07:29;5.63;;;1.80;;
53044;SDS011;38930;52.766;6.884;2022-09-25T01:09:56;3.97;;;1.65;;
53044;SDS011;38930;52.766;6.884;2022-09-25T01:12:23;4.38;;;1.58;;
53044;SDS011;38930;52.766;6.884;2022-09-25T01:14:49;4.95;;;1.45;;
53044;SDS011;38930;52.766;6.884;2022-09-25T01:17:21;5.23;;;1.47;;
53044;SDS011;38930;52.766;6.884;2022-09-25T01:20:11;7.05;;;1.60;;
53044;SDS011;38930;52.766;6.884;2022-09-25T01:30:43;5.43;;;1.50;;
53044;SDS011;38930;52.766;6.884;2022-09-25T01:33:19;4.57;;;2.00;;
53044;SDS011;38930;52.766;6.884;2022-09-25T01:36:05;5.90;;;1.90;;
53044;SDS011;38930;52.766;6.884;2022-09-25T01:44:12;6.13;;;1.80;;
53044;SDS011;38930;52.766;6.884;2022-09-25T01:46:46;3.25;;;1.40;;
53044;SDS011;38930;52.766;6.884;2022-09-25T01:49:21;4.03;;;1.70;;
53044;SDS011;38930;52.766;6.884;2022-09-25T01:51:54;6.30;;;2.00;;
53044;SDS011;38930;52.766;6.884;2022-09-25T01:54:23;6.60;;;2.15;;
53044;SDS011;38930;52.766;6.884;2022-09-25T01:59:32;3.90;;;1.63;;
53044;SDS011;38930;52.766;6.884;2022-09-25T02:02:05;2.97;;;1.52;;
53044;SDS011;38930;52.766;6.884;2022-09-25T02:04:38;3.65;;;1.52;;
53044;SDS011;38930;52.766;6.884;2022-09-25T02:07:09;4.60;;;1.67;;
53044;SDS011;38930;52.766;6.884;2022-09-25T02:12:05;3.30;;;1.63;;
53044;SDS011;38930;52.766;6.884;2022-09-25T02:14:44;6.63;;;1.73;;
53044;SDS011;38930;52.766;6.884;2022-09-25T02:17:39;4.78;;;1.65;;
53044;SDS011;38930;52.766;6.884;2022-09-25T02:20:30;2.92;;;1.83;;
53044;SDS011;38930;52.766;6.884;2022-09-25T02:25:42;3.65;;;1.65;;
53044;SDS011;38930;52.766;6.884;2022-09-25T02:28:33;4.03;;;1.70;;
53044;SDS011;38930;52.766;6.884;2022-09-25T02:33:27;3.40;;;1.67;;
53044;SDS011;38930;52.766;6.884;2022-09-25T02:35:53;3.45;;;1.40;;
53044;SDS011;38930;52.766;6.884;2022-09-25T02:38:19;7.85;;;1.50;;
53044;SDS011;38930;52.766;6.884;2022-09-25T02:40:51;3.95;;;1.75;;
53044;SDS011;38930;52.766;6.884;2022-09-25T02:48:50;8.10;;;1.98;;
53044;SDS011;38930;52.766;6.884;2022-09-25T02:54:06;5.38;;;1.70;;
53044;SDS011;38930;52.766;6.884;2022-09-25T02:59:29;4.22;;;2.45;;
53044;SDS011;38930;52.766;6.884;2022-09-25T03:01:59;5.57;;;1.55;;
53044;SDS011;38930;52.766;6.884;2022-09-25T03:04:26;4.15;;;1.63;;
53044;SDS011;38930;52.766;6.884;2022-09-25T03:06:53;7.63;;;1.80;;
53044;SDS011;38930;52.766;6.884;2022-09-25T03:09:20;6.95;;;1.92;;
53044;SDS011;38930;52.766;6.884;2022-09-25T03:11:47;5.90;;;1.58;;
53044;SDS011;38930;52.766;6.884;2022-09-25T03:14:13;7.30;;;1.75;;
53044;SDS011;38930;52.766;6.884;2022-09-25T03:19:12;3.33;;;1.50;;
53044;SDS011;38930;52.766;6.884;2022-09-25T03:21:38;7.45;;;1.58;;
53044;SDS011;38930;52.766;6.884;2022-09-25T03:24:04;4.00;;;1.60;;
53044;SDS011;38930;52.766;6.884;2022-09-25T03:26:30;7.80;;;2.65;;
53044;SDS011;38930;52.766;6.884;2022-09-25T03:28:56;4.32;;;1.42;;
53044;SDS011;38930;52.766;6.884;2022-09-25T03:31:26;4.57;;;1.80;;
53044;SDS011;38930;52.766;6.884;2022-09-25T03:33:52;5.97;;;1.73;;
53044;SDS011;38930;52.766;6.884;2022-09-25T03:36:19;5.47;;;1.73;;
53044;SDS011;38930;52.766;6.884;2022-09-25T03:38:47;4.07;;;1.70;;
53044;SDS011;38930;52.766;6.884;2022-09-25T03:41:17;4.15;;;2.03;;
53044;SDS011;38930;52.766;6.884;2022-09-25T03:43:46;3.58;;;1.75;;
53044;SDS011;38930;52.766;6.884;2022-09-25T03:46:15;3.08;;;1.45;;
53044;SDS011;38930;52.766;6.884;2022-09-25T03:48:41;4.45;;;1.73;;
53044;SDS011;38930;52.766;6.884;2022-09-25T03:51:07;2.85;;;1.85;;
53044;SDS011;38930;52.766;6.884;2022-09-25T03:53:34;8.30;;;1.77;;
53044;SDS011;38930;52.766;6.884;2022-09-25T03:56:00;2.83;;;1.73;;
53044;SDS011;38930;52.766;6.884;2022-09-25T03:58:27;2.55;;;1.60;;
53044;SDS011;38930;52.766;6.884;2022-09-25T04:00:54;3.50;;;1.95;;
53044;SDS011;38930;52.766;6.884;2022-09-25T04:03:21;5.20;;;1.80;;
53044;SDS011;38930;52.766;6.884;2022-09-25T04:05:54;6.72;;;1.90;;
53044;SDS011;38930;52.766;6.884;2022-09-25T04:08:22;6.93;;;2.15;;
53044;SDS011;38930;52.766;6.884;2022-09-25T04:10:50;8.48;;;1.98;;
53044;SDS011;38930;52.766;6.884;2022-09-25T04:13:16;6.22;;;2.22;;
53044;SDS011;38930;52.766;6.884;2022-09-25T04:15:43;6.55;;;2.00;;
53044;SDS011;38930;52.766;6.884;2022-09-25T04:18:09;5.50;;;1.88;;
53044;SDS011;38930;52.766;6.884;2022-09-25T04:20:35;5.68;;;1.75;;
53044;SDS011;38930;52.766;6.884;2022-09-25T04:23:02;4.93;;;1.65;;
53044;SDS011;38930;52.766;6.884;2022-09-25T04:25:28;2.90;;;1.50;;
53044;SDS011;38930;52.766;6.884;2022-09-25T04:27:54;3.83;;;1.70;;
53044;SDS011;38930;52.766;6.884;2022-09-25T04:30:24;5.32;;;1.95;;
53044;SDS011;38930;52.766;6.884;2022-09-25T04:32:51;4.72;;;2.03;;
53044;SDS011;38930;52.766;6.884;2022-09-25T04:35:36;3.83;;;1.80;;
53044;SDS011;38930;52.766;6.884;2022-09-25T04:38:02;5.45;;;2.88;;
53044;SDS011;38930;52.766;6.884;2022-09-25T04:40:28;4.28;;;1.83;;
53044;SDS011;38930;52.766;6.884;2022-09-25T04:42:55;4.33;;;2.13;;
53044;SDS011;38930;52.766;6.884;2022-09-25T04:45:22;3.38;;;1.85;;
53044;SDS011;38930;52.766;6.884;2022-09-25T04:47:47;9.30;;;2.67;;
53044;SDS011;38930;52.766;6.884;2022-09-25T04:50:13;3.10;;;2.13;;
53044;SDS011;38930;52.766;6.884;2022-09-25T04:52:38;3.30;;;1.95;;
53044;SDS011;38930;52.766;6.884;2022-09-25T04:55:04;3.75;;;2.13;;
53044;SDS011;38930;52.766;6.884;2022-09-25T04:57:30;4.18;;;1.95;;
53044;SDS011;38930;52.766;6.884;2022-09-25T04:59:57;3.70;;;2.13;;
53044;SDS011;38930;52.766;6.884;2022-09-25T05:02:26;7.10;;;2.72;;
53044;SDS011;38930;52.766;6.884;2022-09-25T05:04:52;4.88;;;2.03;;
53044;SDS011;38930;52.766;6.884;2022-09-25T05:07:18;6.13;;;2.03;;
53044;SDS011;38930;52.766;6.884;2022-09-25T05:09:43;3.40;;;1.85;;
53044;SDS011;38930;52.766;6.884;2022-09-25T05:12:09;3.92;;;1.95;;
53044;SDS011;38930;52.766;6.884;2022-09-25T05:14:35;4.30;;;1.95;;
53044;SDS011;38930;52.766;6.884;2022-09-25T05:17:00;6.22;;;1.60;;
53044;SDS011;38930;52.766;6.884;2022-09-25T05:19:26;5.47;;;2.08;;
53044;SDS011;38930;52.766;6.884;2022-09-25T05:21:52;6.25;;;2.38;;
53044;SDS011;38930;52.766;6.884;2022-09-25T05:24:18;7.85;;;2.55;;
53044;SDS011;38930;52.766;6.884;2022-09-25T05:26:44;5.15;;;1.95;;
53044;SDS011;38930;52.766;6.884;2022-09-25T05:29:09;4.25;;;1.80;;
53044;SDS011;38930;52.766;6.884;2022-09-25T05:31:35;2.70;;;1.52;;
53044;SDS011;38930;52.766;6.884;2022-09-25T05:36:27;7.60;;;2.33;;
53044;SDS011;38930;52.766;6.884;2022-09-25T05:38:53;3.95;;;1.85;;
53044;SDS011;38930;52.766;6.884;2022-09-25T05:41:20;3.05;;;1.60;;
53044;SDS011;38930;52.766;6.884;2022-09-25T05:43:45;5.57;;;2.47;;
53044;SDS011;38930;52.766;6.884;2022-09-25T05:46:11;7.70;;;1.92;;
53044;SDS011;38930;52.766;6.884;2022-09-25T05:48:38;5.13;;;1.98;;
53044;SDS011;38930;52.766;6.884;2022-09-25T05:51:04;4.45;;;2.05;;
53044;SDS011;38930;52.766;6.884;2022-09-25T05:53:30;6.45;;;2.22;;
53044;SDS011;38930;52.766;6.884;2022-09-25T05:55:57;7.07;;;2.33;;
53044;SDS011;38930;52.766;6.884;2022-09-25T05:58:27;4.30;;;2.10;;
53044;SDS011;38930;52.766;6.884;2022-09-25T06:00:54;3.65;;;2.17;;
53044;SDS011;38930;52.766;6.884;2022-09-25T06:03:20;6.25;;;2.40;;
53044;SDS011;38930;52.766;6.884;2022-09-25T06:05:46;4.38;;;2.33;;
53044;SDS011;38930;52.766;6.884;2022-09-25T06:08:12;6.80;;;2.60;;
53044;SDS011;38930;52.766;6.884;2022-09-25T06:10:39;3.30;;;2.00;;
53044;SDS011;38930;52.766;6.884;2022-09-25T06:13:05;7.45;;;2.00;;
53044;SDS011;38930;52.766;6.884;2022-09-25T06:15:35;8.20;;;3.38;;
53044;SDS011;38930;52.766;6.884;2022-09-25T06:18:03;9.55;;;7.22;;
53044;SDS011;38930;52.766;6.884;2022-09-25T06:20:29;10.93;;;3.45;;
53044;SDS011;38930;52.766;6.884;2022-09-25T06:22:56;7.60;;;3.83;;
53044;SDS011;38930;52.766;6.884;2022-09-25T06:25:22;10.07;;;5.40;;
53044;SDS011;38930;52.766;6.884;2022-09-25T06:27:51;11.48;;;6.50;;
53044;SDS011;38930;52.766;6.884;2022-09-25T06:30:21;8.60;;;3.75;;
53044;SDS011;38930;52.766;6.884;2022-09-25T06:35:15;6.20;;;4.35;;
53044;SDS011;38930;52.766;6.884;2022-09-25T06:37:40;6.40;;;3.15;;
53044;SDS011;38930;52.766;6.884;2022-09-25T06:40:06;8.25;;;3.65;;
53044;SDS011;38930;52.766;6.884;2022-09-25T06:42:32;5.45;;;2.60;;
53044;SDS011;38930;52.766;6.884;2022-09-25T06:44:59;9.93;;;2.75;;
53044;SDS011;38930;52.766;6.884;2022-09-25T06:47:25;5.35;;;3.35;;
53044;SDS011;38930;52.766;6.884;2022-09-25T06:49:51;6.25;;;2.35;;
53044;SDS011;38930;52.766;6.884;2022-09-25T06:52:16;5.28;;;2.45;;
53044;SDS011;38930;52.766;6.884;2022-09-25T06:54:42;7.35;;;3.55;;
53044;SDS011;38930;52.766;6.884;2022-09-25T06:57:07;6.38;;;2.92;;
53044;SDS011;38930;52.766;6.884;2022-09-25T06:59:34;8.38;;;2.45;;
53044;SDS011;38930;52.766;6.884;2022-09-25T07:02:00;8.15;;;2.92;;
53044;SDS011;38930;52.766;6.884;2022-09-25T07:04:45;7.63;;;2.90;;
53044;SDS011;38930;52.766;6.884;2022-09-25T07:07:15;5.70;;;2.78;;
53044;SDS011;38930;52.766;6.884;2022-09-25T07:09:43;9.25;;;3.15;;
53044;SDS011;38930;52.766;6.884;2022-09-25T07:12:09;7.03;;;2.67;;
53044;SDS011;38930;52.766;6.884;2022-09-25T07:14:35;10.83;;;4.10;;
53044;SDS011;38930;52.766;6.884;2022-09-25T07:17:02;5.97;;;2.80;;
53044;SDS011;38930;52.766;6.884;2022-09-25T07:19:28;6.55;;;2.63;;
53044;SDS011;38930;52.766;6.884;2022-09-25T07:21:53;4.35;;;2.22;;
53044;SDS011;38930;52.766;6.884;2022-09-25T07:24:19;16.67;;;7.13;;
53044;SDS011;38930;52.766;6.884;2022-09-25T07:26:46;7.63;;;3.83;;
53044;SDS011;38930;52.766;6.884;2022-09-25T07:29:11;5.10;;;2.67;;
53044;SDS011;38930;52.766;6.884;2022-09-25T07:31:37;8.07;;;2.65;;
53044;SDS011;38930;52.766;6.884;2022-09-25T07:34:03;8.93;;;2.47;;
53044;SDS011;38930;52.766;6.884;2022-09-25T07:36:33;8.85;;;2.45;;
53044;SDS011;38930;52.766;6.884;2022-09-25T07:39:02;13.43;;;1.80;;
53044;SDS011;38930;52.766;6.884;2022-09-25T07:41:28;2.67;;;1.80;;
53044;SDS011;38930;52.766;6.884;2022-09-25T07:43:54;7.88;;;2.15;;
53044;SDS011;38930;52.766;6.884;2022-09-25T07:46:21;5.97;;;2.00;;
53044;SDS011;38930;52.766;6.884;2022-09-25T07:48:48;6.18;;;2.17;;
53044;SDS011;38930;52.766;6.884;2022-09-25T07:51:14;7.13;;;2.05;;
53044;SDS011;38930;52.766;6.884;2022-09-25T07:53:40;6.55;;;1.95;;
53044;SDS011;38930;52.766;6.884;2022-09-25T07:56:06;5.90;;;2.03;;
53044;SDS011;38930;52.766;6.884;2022-09-25T07:58:33;6.18;;;2.00;;
53044;SDS011;38930;52.766;6.884;2022-09-25T08:01:00;5.88;;;1.83;;
53044;SDS011;38930;52.766;6.884;2022-09-25T08:05:56;6.60;;;1.90;;
53044;SDS011;38930;52.766;6.884;2022-09-25T08:08:23;5.93;;;1.60;;
53044;SDS011;38930;52.766;6.884;2022-09-25T08:10:50;5.97;;;1.80;;
53044;SDS011;38930;52.766;6.884;2022-09-25T08:13:15;7.28;;;1.60;;
53044;SDS011;38930;52.766;6.884;2022-09-25T08:15:44;6.10;;;1.67;;
53044;SDS011;38930;52.766;6.884;2022-09-25T08:18:10;4.70;;;1.92;;
53044;SDS011;38930;52.766;6.884;2022-09-25T08:20:36;7.07;;;1.67;;
53044;SDS011;38930;52.766;6.884;2022-09-25T08:23:04;8.60;;;1.85;;
53044;SDS011;38930;52.766;6.884;2022-09-25T08:25:30;7.30;;;1.52;;
53044;SDS011;38930;52.766;6.884;2022-09-25T08:27:55;3.28;;;1.38;;
53044;SDS011;38930;52.766;6.884;2022-09-25T08:30:21;2.80;;;1.10;;
53044;SDS011;38930;52.766;6.884;2022-09-25T08:32:47;8.63;;;1.65;;
53044;SDS011;38930;52.766;6.884;2022-09-25T08:35:12;4.20;;;1.52;;
53044;SDS011;38930;52.766;6.884;2022-09-25T08:37:39;5.10;;;1.48;;
53044;SDS011;38930;52.766;6.884;2022-09-25T08:40:11;6.25;;;1.38;;
53044;SDS011;38930;52.766;6.884;2022-09-25T08:42:41;4.50;;;1.35;;
53044;SDS011;38930;52.766;6.884;2022-09-25T08:45:12;6.40;;;1.35;;
53044;SDS011;38930;52.766;6.884;2022-09-25T08:48:14;8.00;;;1.50;;
53044;SDS011;38930;52.766;6.884;2022-09-25T08:51:03;4.95;;;1.17;;
53044;SDS011;38930;52.766;6.884;2022-09-25T08:53:30;6.95;;;1.40;;
53044;SDS011;38930;52.766;6.884;2022-09-25T08:55:57;7.30;;;1.55;;
53044;SDS011;38930;52.766;6.884;2022-09-25T08:58:47;7.25;;;1.20;;
53044;SDS011;38930;52.766;6.884;2022-09-25T09:01:21;4.82;;;1.42;;
53044;SDS011;38930;52.766;6.884;2022-09-25T09:03:57;4.35;;;1.27;;
53044;SDS011;38930;52.766;6.884;2022-09-25T09:06:29;5.13;;;1.58;;
53044;SDS011;38930;52.766;6.884;2022-09-25T09:12:08;6.85;;;1.27;;
53044;SDS011;38930;52.766;6.884;2022-09-25T09:14:39;5.80;;;1.33;;
53044;SDS011;38930;52.766;6.884;2022-09-25T09:17:26;7.80;;;1.55;;
53044;SDS011;38930;52.766;6.884;2022-09-25T09:19:55;6.13;;;1.50;;
53044;SDS011;38930;52.766;6.884;2022-09-25T09:22:39;5.50;;;1.33;;
53044;SDS011;38930;52.766;6.884;2022-09-25T09:28:05;5.65;;;1.73;;
53044;SDS011;38930;52.766;6.884;2022-09-25T09:33:33;5.43;;;1.30;;
53044;SDS011;38930;52.766;6.884;2022-09-25T09:41:48;5.22;;;1.35;;
53044;SDS011;38930;52.766;6.884;2022-09-25T09:44:43;5.50;;;1.38;;
53044;SDS011;38930;52.766;6.884;2022-09-25T09:49:54;3.90;;;1.08;;
53044;SDS011;38930;52.766;6.884;2022-09-25T09:52:28;4.85;;;1.40;;
53044;SDS011;38930;52.766;6.884;2022-09-25T10:00:39;5.10;;;1.17;;
53044;SDS011;38930;52.766;6.884;2022-09-25T10:03:19;4.60;;;1.15;;
53044;SDS011;38930;52.766;6.884;2022-09-25T10:05:49;4.85;;;1.33;;
53044;SDS011;38930;52.766;6.884;2022-09-25T10:08:18;3.95;;;1.08;;
53044;SDS011;38930;52.766;6.884;2022-09-25T10:10:45;6.87;;;1.43;;
53044;SDS011;38930;52.766;6.884;2022-09-25T10:13:18;3.15;;;0.90;;
53044;SDS011;38930;52.766;6.884;2022-09-25T10:15:54;3.88;;;1.10;;
53044;SDS011;38930;52.766;6.884;2022-09-25T10:18:28;5.60;;;1.05;;
53044;SDS011;38930;52.766;6.884;2022-09-25T10:21:09;12.98;;;1.80;;
53044;SDS011;38930;52.766;6.884;2022-09-25T10:29:47;4.53;;;1.35;;
53044;SDS011;38930;52.766;6.884;2022-09-25T10:32:03;5.68;;;1.38;;
53044;SDS011;38930;52.766;6.884;2022-09-25T10:34:29;4.13;;;1.33;;
53044;SDS011;38930;52.766;6.884;2022-09-25T10:36:56;3.83;;;1.27;;
53044;SDS011;38930;52.766;6.884;2022-09-25T10:41:59;5.15;;;1.20;;
53044;SDS011;38930;52.766;6.884;2022-09-25T10:44:28;5.32;;;0.98;;
53044;SDS011;38930;52.766;6.884;2022-09-25T10:50:15;2.90;;;0.93;;
53044;SDS011;38930;52.766;6.884;2022-09-25T10:52:49;3.85;;;0.95;;
53044;SDS011;38930;52.766;6.884;2022-09-25T10:55:24;3.83;;;0.82;;
53044;SDS011;38930;52.766;6.884;2022-09-25T11:05:49;2.10;;;0.60;;
53044;SDS011;38930;52.766;6.884;2022-09-25T11:08:19;1.35;;;0.70;;
53044;SDS011;38930;52.766;6.884;2022-09-25T11:10:52;2.72;;;1.20;;
53044;SDS011;38930;52.766;6.884;2022-09-25T11:13:31;3.20;;;1.45;;
53044;SDS011;38930;52.766;6.884;2022-09-25T11:16:13;3.30;;;1.70;;
53044;SDS011;38930;52.766;6.884;2022-09-25T11:21:20;1.35;;;0.60;;
53044;SDS011;38930;52.766;6.884;2022-09-25T11:37:33;1.98;;;0.75;;
53044;SDS011;38930;52.766;6.884;2022-09-25T11:43:19;2.28;;;0.80;;
53044;SDS011;38930;52.766;6.884;2022-09-25T11:46:06;2.65;;;0.80;;
53044;SDS011;38930;52.766;6.884;2022-09-25T11:49:10;1.90;;;0.80;;
53044;SDS011;38930;52.766;6.884;2022-09-25T11:51:53;3.30;;;0.80;;
53044;SDS011;38930;52.766;6.884;2022-09-25T12:00:15;3.47;;;1.13;;
53044;SDS011;38930;52.766;6.884;2022-09-25T12:02:58;3.45;;;1.02;;
53044;SDS011;38930;52.766;6.884;2022-09-25T12:08:37;4.10;;;1.10;;
53044;SDS011;38930;52.766;6.884;2022-09-25T12:19:05;2.33;;;0.88;;
53044;SDS011;38930;52.766;6.884;2022-09-25T12:21:48;1.77;;;0.68;;
53044;SDS011;38930;52.766;6.884;2022-09-25T12:24:27;2.22;;;0.73;;
53044;SDS011;38930;52.766;6.884;2022-09-25T12:27:17;2.20;;;0.60;;
53044;SDS011;38930;52.766;6.884;2022-09-25T12:30:03;1.30;;;0.65;;
53044;SDS011;38930;52.766;6.884;2022-09-25T12:35:36;2.50;;;0.75;;
53044;SDS011;38930;52.766;6.884;2022-09-25T12:38:08;2.17;;;0.75;;
53044;SDS011;38930;52.766;6.884;2022-09-25T12:43:54;3.42;;;0.80;;
53044;SDS011;38930;52.766;6.884;2022-09-25T12:46:42;1.95;;;0.73;;
53044;SDS011;38930;52.766;6.884;2022-09-25T12:52:08;2.83;;;0.68;;
53044;SDS011;38930;52.766;6.884;2022-09-25T12:57:12;4.68;;;0.75;;
53044;SDS011;38930;52.766;6.884;2022-09-25T12:59:59;3.05;;;0.60;;
53044;SDS011;38930;52.766;6.884;2022-09-25T13:05:30;2.92;;;0.77;;
53044;SDS011;38930;52.766;6.884;2022-09-25T13:08:12;2.60;;;0.73;;
53044;SDS011;38930;52.766;6.884;2022-09-25T13:13:26;3.08;;;0.70;;
53044;SDS011;38930;52.766;6.884;2022-09-25T13:16:00;3.35;;;0.80;;
53044;SDS011;38930;52.766;6.884;2022-09-25T13:18:27;3.08;;;0.90;;
53044;SDS011;38930;52.766;6.884;2022-09-25T13:20:55;2.53;;;1.00;;
53044;SDS011;38930;52.766;6.884;2022-09-25T13:26:12;2.95;;;0.80;;
53044;SDS011;38930;52.766;6.884;2022-09-25T13:28:48;2.55;;;0.90;;
53044;SDS011;38930;52.766;6.884;2022-09-25T13:31:22;2.50;;;0.77;;
53044;SDS011;38930;52.766;6.884;2022-09-25T13:36:33;3.75;;;0.90;;
53044;SDS011;38930;52.766;6.884;2022-09-25T13:39:18;2.92;;;1.05;;
53044;SDS011;38930;52.766;6.884;2022-09-25T14:00:26;4.05;;;1.00;;
53044;SDS011;38930;52.766;6.884;2022-09-25T14:06:13;3.15;;;0.88;;
53044;SDS011;38930;52.766;6.884;2022-09-25T14:08:48;4.18;;;1.10;;
53044;SDS011;38930;52.766;6.884;2022-09-25T14:11:15;2.38;;;0.88;;
53044;SDS011;38930;52.766;6.884;2022-09-25T14:13:44;3.22;;;1.27;;
53044;SDS011;38930;52.766;6.884;2022-09-25T14:19:01;3.97;;;1.50;;
53044;SDS011;38930;52.766;6.884;2022-09-25T14:21:28;6.90;;;3.55;;
53044;SDS011;38930;52.766;6.884;2022-09-25T14:24:17;5.47;;;2.97;;
53044;SDS011;38930;52.766;6.884;2022-09-25T14:26:44;6.88;;;4.00;;
53044;SDS011;38930;52.766;6.884;2022-09-25T14:29:18;5.30;;;2.67;;
53044;SDS011;38930;52.766;6.884;2022-09-25T14:34:48;4.47;;;1.50;;
53044;SDS011;38930;52.766;6.884;2022-09-25T14:45:35;3.47;;;1.30;;
53044;SDS011;38930;52.766;6.884;2022-09-25T14:48:42;2.83;;;1.20;;
53044;SDS011;38930;52.766;6.884;2022-09-25T14:51:19;2.47;;;0.95;;
53044;SDS011;38930;52.766;6.884;2022-09-25T14:53:51;3.17;;;1.00;;
53044;SDS011;38930;52.766;6.884;2022-09-25T14:56:21;2.42;;;0.90;;
53044;SDS011;38930;52.766;6.884;2022-09-25T14:58:49;2.25;;;0.73;;
53044;SDS011;38930;52.766;6.884;2022-09-25T15:01:22;2.60;;;0.93;;
53044;SDS011;38930;52.766;6.884;2022-09-25T15:03:51;3.00;;;1.08;;
53044;SDS011;38930;52.766;6.884;2022-09-25T15:06:23;2.25;;;0.93;;
53044;SDS011;38930;52.766;6.884;2022-09-25T15:08:50;2.58;;;0.80;;
53044;SDS011;38930;52.766;6.884;2022-09-25T15:11:17;1.98;;;0.70;;
53044;SDS011;38930;52.766;6.884;2022-09-25T15:13:44;1.70;;;0.80;;
53044;SDS011;38930;52.766;6.884;2022-09-25T15:16:12;2.93;;;0.90;;
53044;SDS011;38930;52.766;6.884;2022-09-25T15:19:12;3.45;;;0.90;;
53044;SDS011;38930;52.766;6.884;2022-09-25T15:21:45;3.28;;;1.10;;
53044;SDS011;38930;52.766;6.884;2022-09-25T15:24:16;3.40;;;2.10;;
53044;SDS011;38930;52.766;6.884;2022-09-25T15:26:47;3.00;;;1.52;;
53044;SDS011;38930;52.766;6.884;2022-09-25T15:29:20;3.15;;;1.40;;
53044;SDS011;38930;52.766;6.884;2022-09-25T15:31:48;3.92;;;1.13;;
53044;SDS011;38930;52.766;6.884;2022-09-25T15:34:18;1.70;;;1.00;;
53044;SDS011;38930;52.766;6.884;2022-09-25T15:36:49;3.25;;;1.02;;
53044;SDS011;38930;52.766;6.884;2022-09-25T15:39:16;2.75;;;0.90;;
53044;SDS011;38930;52.766;6.884;2022-09-25T15:41:50;3.47;;;1.08;;
53044;SDS011;38930;52.766;6.884;2022-09-25T15:44:22;5.10;;;1.37;;
53044;SDS011;38930;52.766;6.884;2022-09-25T15:46:50;3.47;;;1.23;;
53044;SDS011;38930;52.766;6.884;2022-09-25T15:49:18;3.03;;;1.35;;
53044;SDS011;38930;52.766;6.884;2022-09-25T15:51:51;4.40;;;0.98;;
53044;SDS011;38930;52.766;6.884;2022-09-25T15:54:41;2.78;;;1.08;;
53044;SDS011;38930;52.766;6.884;2022-09-25T15:57:12;2.38;;;0.93;;
53044;SDS011;38930;52.766;6.884;2022-09-25T15:59:45;2.45;;;1.20;;
53044;SDS011;38930;52.766;6.884;2022-09-25T16:02:32;3.22;;;1.25;;
53044;SDS011;38930;52.766;6.884;2022-09-25T16:05:22;3.35;;;1.10;;
53044;SDS011;38930;52.766;6.884;2022-09-25T16:07:52;2.15;;;0.88;;
53044;SDS011;38930;52.766;6.884;2022-09-25T16:10:39;2.63;;;1.00;;
53044;SDS011;38930;52.766;6.884;2022-09-25T16:13:16;2.28;;;1.20;;
53044;SDS011;38930;52.766;6.884;2022-09-25T16:15:48;3.17;;;1.23;;
53044;SDS011;38930;52.766;6.884;2022-09-25T16:20:55;4.68;;;1.20;;
53044;SDS011;38930;52.766;6.884;2022-09-25T16:23:30;4.07;;;1.30;;
53044;SDS011;38930;52.766;6.884;2022-09-25T16:25:55;2.33;;;1.10;;
53044;SDS011;38930;52.766;6.884;2022-09-25T16:28:26;3.05;;;1.17;;
53044;SDS011;38930;52.766;6.884;2022-09-25T16:30:57;3.90;;;1.30;;
53044;SDS011;38930;52.766;6.884;2022-09-25T16:36:00;2.67;;;1.42;;
53044;SDS011;38930;52.766;6.884;2022-09-25T16:38:36;5.22;;;1.55;;
53044;SDS011;38930;52.766;6.884;2022-09-25T16:43:38;2.70;;;1.40;;
53044;SDS011;38930;52.766;6.884;2022-09-25T16:46:11;3.63;;;1.67;;
53044;SDS011;38930;52.766;6.884;2022-09-25T16:48:40;3.28;;;2.00;;
53044;SDS011;38930;52.766;6.884;2022-09-25T16:51:10;5.13;;;3.70;;
53044;SDS011;38930;52.766;6.884;2022-09-25T16:53:45;4.85;;;3.40;;
53044;SDS011;38930;52.766;6.884;2022-09-25T16:56:18;4.15;;;3.22;;
53044;SDS011;38930;52.766;6.884;2022-09-25T16:58:49;4.57;;;3.70;;
53044;SDS011;38930;52.766;6.884;2022-09-25T17:01:18;6.63;;;4.32;;
53044;SDS011;38930;52.766;6.884;2022-09-25T17:03:46;7.65;;;4.05;;
53044;SDS011;38930;52.766;6.884;2022-09-25T17:06:16;6.10;;;4.15;;
53044;SDS011;38930;52.766;6.884;2022-09-25T17:08:45;5.53;;;4.32;;
53044;SDS011;38930;52.766;6.884;2022-09-25T17:11:12;6.32;;;4.32;;
53044;SDS011;38930;52.766;6.884;2022-09-25T17:13:39;4.28;;;3.72;;
53044;SDS011;38930;52.766;6.884;2022-09-25T17:16:06;5.50;;;3.65;;
53044;SDS011;38930;52.766;6.884;2022-09-25T17:18:31;5.37;;;4.00;;
53044;SDS011;38930;52.766;6.884;2022-09-25T17:20:58;5.07;;;4.10;;
53044;SDS011;38930;52.766;6.884;2022-09-25T17:23:25;5.57;;;3.90;;
53044;SDS011;38930;52.766;6.884;2022-09-25T17:25:59;6.77;;;5.07;;
53044;SDS011;38930;52.766;6.884;2022-09-25T17:30:54;6.03;;;5.18;;
53044;SDS011;38930;52.766;6.884;2022-09-25T17:33:20;6.68;;;4.68;;
53044;SDS011;38930;52.766;6.884;2022-09-25T17:38:29;6.70;;;3.70;;
53044;SDS011;38930;52.766;6.884;2022-09-25T17:40:59;7.00;;;3.90;;
53044;SDS011;38930;52.766;6.884;2022-09-25T17:43:26;4.55;;;3.33;;
53044;SDS011;38930;52.766;6.884;2022-09-25T17:45:55;4.93;;;3.22;;
53044;SDS011;38930;52.766;6.884;2022-09-25T17:48:23;4.80;;;3.67;;
53044;SDS011;38930;52.766;6.884;2022-09-25T17:50:59;6.95;;;3.92;;
53044;SDS011;38930;52.766;6.884;2022-09-25T17:53:36;6.47;;;4.45;;
53044;SDS011;38930;52.766;6.884;2022-09-25T17:56:02;7.23;;;5.13;;
53044;SDS011;38930;52.766;6.884;2022-09-25T17:58:28;7.10;;;4.43;;
53044;SDS011;38930;52.766;6.884;2022-09-25T18:00:56;5.93;;;4.90;;
53044;SDS011;38930;52.766;6.884;2022-09-25T18:03:26;8.60;;;4.97;;
53044;SDS011;38930;52.766;6.884;2022-09-25T18:05:52;5.68;;;5.07;;
53044;SDS011;38930;52.766;6.884;2022-09-25T18:08:19;6.30;;;5.22;;
53044;SDS011;38930;52.766;6.884;2022-09-25T18:10:45;6.43;;;4.63;;
53044;SDS011;38930;52.766;6.884;2022-09-25T18:13:12;8.02;;;5.40;;
53044;SDS011;38930;52.766;6.884;2022-09-25T18:15:59;8.00;;;6.25;;
53044;SDS011;38930;52.766;6.884;2022-09-25T18:18:25;6.95;;;6.25;;
53044;SDS011;38930;52.766;6.884;2022-09-25T18:21:14;8.68;;;7.82;;
53044;SDS011;38930;52.766;6.884;2022-09-25T18:23:59;7.30;;;5.28;;
53044;SDS011;38930;52.766;6.884;2022-09-25T18:26:25;4.80;;;3.70;;
53044;SDS011;38930;52.766;6.884;2022-09-25T18:28:50;8.35;;;4.53;;